Time;durP1;ratioP1;P1;durP2;ratioP2;P2;SDS_P1;SDS_P2;PMS_P1;PMS_P2;Temp;Humidity;BMP_temperature;BMP_pressure;BME280_temperature;BME280_humidity;BME280_pressure;Samples;Min_cycle;Max_cycle;Signal;HPM_P1;HPM_P2
2022/03/21 00:00:59;;;;;;;54.65;36.83;;;6.60;99.90;;;;;;2108692;67;20227;-73
2022/03/21 00:03:44;;;;;;;45.80;34.15;;;6.60;99.90;;;;;;2107270;67;20713;-74
2022/03/21 00:06:26;;;;;;;47.83;35.15;;;6.60;99.90;;;;;;2118262;67;20231;-73
2022/03/21 00:09:08;;;;;;;46.40;33.85;;;6.60;99.90;;;;;;2129712;66;20395;-73
2022/03/21 00:11:50;;;;;;;41.60;31.95;;;6.60;99.90;;;;;;2132586;67;20485;-72
2022/03/21 00:14:33;;;;;;;47.05;33.08;;;6.70;99.90;;;;;;2145398;66;20301;-74
2022/03/21 00:17:18;;;;;;;44.50;31.93;;;6.60;99.90;;;;;;2137946;66;20304;-73
2022/03/21 00:20:00;;;;;;;44.15;32.05;;;6.70;99.90;;;;;;2131236;66;20171;-73
2022/03/21 00:22:42;;;;;;;45.17;31.63;;;6.60;99.90;;;;;;2130559;67;20285;-73
2022/03/21 00:25:26;;;;;;;41.78;30.05;;;6.60;99.90;;;;;;2128586;67;20434;-73
2022/03/21 00:28:10;;;;;;;43.90;29.65;;;6.60;99.90;;;;;;2125327;67;20365;-73
2022/03/21 00:30:53;;;;;;;41.92;30.50;;;6.60;99.90;;;;;;2113220;67;20333;-73
2022/03/21 00:33:35;;;;;;;39.58;27.17;;;6.60;99.90;;;;;;2130785;67;20320;-73
2022/03/21 00:36:17;;;;;;;41.38;30.25;;;6.50;99.90;;;;;;2124046;67;20305;-73
2022/03/21 00:38:59;;;;;;;43.10;29.48;;;6.40;99.90;;;;;;2123916;67;20252;-73
2022/03/21 00:41:41;;;;;;;42.63;30.30;;;6.30;99.90;;;;;;2117237;67;20193;-73
2022/03/21 00:44:22;;;;;;;39.72;28.52;;;6.30;99.90;;;;;;2123667;67;20192;-73
2022/03/21 00:47:05;;;;;;;39.20;28.10;;;6.20;99.90;;;;;;2117504;67;20272;-72
2022/03/21 00:49:48;;;;;;;39.92;27.05;;;6.20;99.90;;;;;;2123180;67;20311;-72
2022/03/21 00:52:42;;;;;;;41.88;28.42;;;6.20;99.90;;;;;;2118866;67;20269;-73
2022/03/21 00:55:26;;;;;;;40.60;28.48;;;6.10;99.90;;;;;;2124448;67;20327;-73
2022/03/21 00:58:11;;;;;;;38.40;26.30;;;6.10;99.90;;;;;;2106911;67;20345;-73
2022/03/21 01:00:53;;;;;;;39.55;27.98;;;6.10;99.90;;;;;;2104806;67;20438;-73
2022/03/21 01:03:35;;;;;;;37.72;27.17;;;6.00;99.90;;;;;;2093930;68;20182;-73
2022/03/21 01:06:16;;;;;;;39.70;27.33;;;5.90;99.90;;;;;;2095749;68;20275;-73
2022/03/21 01:08:58;;;;;;;40.30;27.67;;;5.90;99.90;;;;;;2088805;68;20171;-73
2022/03/21 01:11:46;;;;;;;37.15;24.98;;;5.80;99.90;;;;;;2095625;68;20208;-74
2022/03/21 01:14:28;;;;;;;40.22;26.77;;;5.80;99.90;;;;;;2096694;68;20244;-74
2022/03/21 01:17:10;;;;;;;41.25;25.02;;;5.80;99.90;;;;;;2090203;68;20180;-73
2022/03/21 01:19:53;;;;;;;37.40;24.63;;;5.70;99.90;;;;;;2097086;68;20229;-73
2022/03/21 01:22:35;;;;;;;36.40;24.67;;;5.80;99.90;;;;;;2101487;67;20228;-73
2022/03/21 01:25:18;;;;;;;35.08;24.27;;;5.70;99.90;;;;;;2102822;67;20186;-73
2022/03/21 01:28:00;;;;;;;35.67;25.23;;;5.70;99.90;;;;;;2116388;67;20353;-72
2022/03/21 01:30:41;;;;;;;38.75;22.88;;;5.70;99.90;;;;;;2123455;67;20294;-72
2022/03/21 01:33:24;;;;;;;34.33;23.27;;;5.70;99.90;;;;;;2118067;67;20203;-72
2022/03/21 01:36:06;;;;;;;34.65;23.13;;;5.70;99.90;;;;;;2111088;67;20276;-72
2022/03/21 01:38:48;;;;;;;34.40;23.35;;;5.70;99.90;;;;;;2111114;67;20217;-72
2022/03/21 01:41:30;;;;;;;32.90;22.92;;;5.60;99.90;;;;;;2110549;67;20199;-73
2022/03/21 01:44:13;;;;;;;33.50;22.70;;;5.60;99.90;;;;;;2123824;67;20729;-74
2022/03/21 01:46:59;;;;;;;29.20;20.90;;;5.50;99.90;;;;;;2100913;67;20355;-73
2022/03/21 01:49:43;;;;;;;34.70;21.70;;;5.50;99.90;;;;;;2130700;67;20243;-73
2022/03/21 01:52:25;;;;;;;32.78;21.42;;;5.50;99.90;;;;;;2124621;67;20324;-73
2022/03/21 01:58:13;;;;;;;34.13;21.42;;;5.40;99.90;;;;;;2130945;67;20239;-73
2022/03/21 02:00:56;;;;;;;30.70;21.23;;;5.40;99.90;;;;;;2129400;67;20413;-75
2022/03/21 02:03:40;;;;;;;;;;;5.30;99.90;;;;;;2123736;67;20330;-72
2022/03/21 02:06:22;;;;;;;29.52;19.10;;;5.30;99.90;;;;;;2111448;67;20481;-73
2022/03/21 02:09:07;;;;;;;32.00;19.95;;;5.60;99.90;;;;;;2118230;67;20210;-73
2022/03/21 02:11:49;;;;;;;29.50;19.33;;;5.20;99.90;;;;;;2124280;67;20417;-71
2022/03/21 02:14:31;;;;;;;27.42;18.35;;;5.10;99.90;;;;;;2122815;67;20172;-73
2022/03/21 02:17:22;;;;;;;27.23;18.77;;;5.10;99.90;;;;;;2118935;67;20796;-72
2022/03/21 02:20:04;;;;;;;28.63;17.92;;;5.10;99.90;;;;;;2123532;67;20345;-72
2022/03/21 02:23:21;;;;;;;27.27;18.13;;;5.10;99.90;;;;;;2122507;67;20224;-73
2022/03/21 02:26:05;;;;;;;27.05;18.15;;;5.00;99.90;;;;;;2146274;66;20420;-72
2022/03/21 02:28:51;;;;;;;28.00;18.27;;;4.90;99.90;;;;;;2132282;67;20212;-73
2022/03/21 02:31:33;;;;;;;26.45;17.80;;;4.90;99.90;;;;;;2121464;67;20281;-73
2022/03/21 02:34:15;;;;;;;27.67;17.92;;;4.90;99.90;;;;;;2111876;67;20682;-73
2022/03/21 02:37:00;;;;;;;26.52;17.83;;;4.90;99.90;;;;;;2117071;67;20185;-72
2022/03/21 02:40:00;;;;;;;28.65;18.05;;;4.90;99.90;;;;;;2106433;67;20303;-72
2022/03/21 02:42:44;;;;;;;26.67;18.13;;;4.80;99.90;;;;;;2117394;67;20236;-73
2022/03/21 02:45:29;;;;;;;26.88;17.88;;;4.80;99.90;;;;;;2120390;67;20803;-72
2022/03/21 02:48:14;;;;;;;25.95;17.70;;;4.80;99.90;;;;;;2124421;67;20239;-73
2022/03/21 02:51:13;;;;;;;25.08;16.40;;;4.70;99.90;;;;;;2131395;67;20344;-71
2022/03/21 02:53:56;;;;;;;28.98;16.73;;;4.70;99.90;;;;;;2130432;67;20390;-73
2022/03/21 02:56:40;;;;;;;27.15;16.35;;;4.70;99.90;;;;;;2113545;67;20714;-73
2022/03/21 02:59:24;;;;;;;28.33;17.27;;;4.60;99.90;;;;;;2112163;67;20597;-73
2022/03/21 03:02:10;;;;;;;30.58;17.42;;;4.70;99.90;;;;;;2124648;67;20203;-72
2022/03/21 03:04:57;;;;;;;25.23;17.50;;;4.60;99.90;;;;;;2117176;67;20419;-73
2022/03/21 03:07:42;;;;;;;25.50;15.85;;;4.60;99.90;;;;;;2124520;67;20180;-72
2022/03/21 03:10:26;;;;;;;27.05;16.90;;;4.50;99.90;;;;;;2133427;66;20300;-73
2022/03/21 03:13:09;;;;;;;26.40;16.83;;;4.40;99.90;;;;;;2146219;66;20628;-73
2022/03/21 03:15:51;;;;;;;28.13;17.27;;;4.40;99.90;;;;;;2130177;67;20184;-72
2022/03/21 03:18:33;;;;;;;25.55;16.98;;;4.40;99.90;;;;;;2138768;66;20211;-72
2022/03/21 03:21:19;;;;;;;23.92;15.68;;;4.40;99.90;;;;;;2158716;66;20293;-73
2022/03/21 03:24:03;;;;;;;24.00;16.23;;;4.40;99.90;;;;;;2146728;66;20178;-71
2022/03/21 03:26:48;;;;;;;25.20;16.73;;;4.30;99.90;;;;;;2132502;67;20239;-72
2022/03/21 03:29:30;;;;;;;27.58;16.30;;;4.40;99.90;;;;;;2145998;66;20200;-72
2022/03/21 03:32:13;;;;;;;28.35;17.17;;;4.40;99.90;;;;;;2131478;67;20259;-73
2022/03/21 03:35:01;;;;;;;27.02;16.25;;;4.30;99.90;;;;;;2138488;66;20372;-72
2022/03/21 03:37:44;;;;;;;28.30;17.08;;;4.30;99.90;;;;;;2131421;67;20745;-72
2022/03/21 03:40:26;;;;;;;28.73;18.15;;;4.30;99.90;;;;;;2123230;67;20496;-73
2022/03/21 03:43:11;;;;;;;25.73;15.73;;;4.30;99.90;;;;;;2103712;67;20294;-71
2022/03/21 03:45:54;;;;;;;27.77;17.45;;;4.30;99.90;;;;;;2103604;67;20341;-73
2022/03/21 03:48:36;;;;;;;24.48;16.33;;;4.20;99.90;;;;;;2096698;67;20689;-72
2022/03/21 03:51:19;;;;;;;27.52;17.00;;;4.20;99.90;;;;;;2102462;67;20258;-73
2022/03/21 03:54:01;;;;;;;26.20;16.45;;;4.20;99.90;;;;;;2104566;67;20178;-72
2022/03/21 03:56:45;;;;;;;30.27;17.90;;;4.30;99.90;;;;;;2088734;68;20391;-72
2022/03/21 03:59:27;;;;;;;25.98;17.23;;;4.20;99.90;;;;;;2081162;68;20557;-73
2022/03/21 04:02:10;;;;;;;26.77;16.55;;;4.20;99.90;;;;;;2075282;68;20192;-72
2022/03/21 04:04:52;;;;;;;29.30;17.60;;;4.20;99.90;;;;;;2077296;68;20609;-73
2022/03/21 04:07:34;;;;;;;28.58;18.23;;;4.20;99.90;;;;;;2077175;68;20192;-72
2022/03/21 04:10:16;;;;;;;25.63;17.63;;;4.20;99.90;;;;;;2078399;68;20181;-71
2022/03/21 04:12:58;;;;;;;27.58;16.42;;;4.20;99.90;;;;;;2075971;68;20983;-73
2022/03/21 04:15:39;;;;;;;29.85;18.08;;;4.20;99.90;;;;;;2091526;68;20272;-73
2022/03/21 04:18:21;;;;;;;31.02;18.88;;;4.20;99.90;;;;;;2077638;68;20181;-72
2022/03/21 04:21:11;;;;;;;29.92;17.88;;;4.20;99.90;;;;;;2077539;68;20602;-73
2022/03/21 04:23:52;;;;;;;27.50;18.10;;;4.20;99.90;;;;;;2088080;68;20376;-73
2022/03/21 04:26:38;;;;;;;30.65;19.13;;;4.20;99.90;;;;;;2089158;68;20642;-72
2022/03/21 04:29:20;;;;;;;29.40;17.42;;;4.10;99.90;;;;;;2101670;67;20231;-73
2022/03/21 04:32:03;;;;;;;29.75;18.60;;;4.10;99.90;;;;;;2114503;67;20350;-73
2022/03/21 04:34:47;;;;;;;28.05;18.42;;;4.00;99.90;;;;;;2117410;67;20173;-73
2022/03/21 04:37:30;;;;;;;;;;;4.00;99.90;;;;;;2099546;68;20254;-73
2022/03/21 04:40:15;;;;;;;30.38;17.90;;;3.90;99.90;;;;;;2096843;68;20210;-71
2022/03/21 04:42:57;;;;;;;30.42;18.80;;;3.90;99.90;;;;;;2102574;68;20364;-71
2022/03/21 04:45:39;;;;;;;29.15;18.95;;;3.80;99.90;;;;;;2098393;68;20203;-73
2022/03/21 04:48:21;;;;;;;28.85;17.90;;;3.80;99.90;;;;;;2099387;68;20182;-71
2022/03/21 04:51:03;;;;;;;28.98;19.48;;;3.80;99.90;;;;;;2092613;68;20816;-72
2022/03/21 04:53:46;;;;;;;34.97;19.90;;;3.80;99.90;;;;;;2105038;67;20249;-72
2022/03/21 04:56:27;;;;;;;30.92;18.60;;;3.70;99.90;;;;;;2116026;67;20325;-74
2022/03/21 04:59:10;;;;;;;30.15;19.55;;;3.70;99.90;;;;;;2117142;67;20196;-73
2022/03/21 05:01:53;;;;;;;27.48;19.20;;;3.70;99.90;;;;;;2114033;67;20225;-73
2022/03/21 05:04:39;;;;;;;30.63;19.52;;;3.70;99.90;;;;;;2124056;67;20329;-73
2022/03/21 05:07:25;;;;;;;33.05;19.45;;;3.70;99.90;;;;;;2137998;67;20300;-72
2022/03/21 05:10:08;;;;;;;33.30;19.35;;;3.60;99.90;;;;;;2137915;67;20375;-72
2022/03/21 05:12:50;;;;;;;35.67;20.60;;;3.60;99.90;;;;;;2130108;67;20380;-72
2022/03/21 05:15:32;;;;;;;29.67;19.30;;;3.60;99.90;;;;;;2123825;67;20323;-72
2022/03/21 05:18:16;;;;;;;33.30;19.65;;;4.10;99.90;;;;;;2111160;67;20328;-72
2022/03/21 05:21:01;;;;;;;35.90;20.45;;;3.60;99.90;;;;;;2111281;67;20218;-72
2022/03/21 05:32:47;;;;;;;34.17;20.88;;;3.50;99.90;;;;;;2136206;66;20798;-73
2022/03/21 05:38:32;;;;;;;35.67;20.85;;;3.50;99.90;;;;;;2123665;67;20202;-72
2022/03/21 05:41:13;;;;;;;39.15;21.98;;;3.40;99.90;;;;;;2112385;67;20381;-72
2022/03/21 05:43:56;;;;;;;37.60;22.98;;;3.40;99.90;;;;;;2109768;67;20202;-72
2022/03/21 05:46:38;;;;;;;40.13;23.55;;;3.30;99.90;;;;;;2109656;67;20182;-72
2022/03/21 05:49:24;;;;;;;33.20;22.30;;;3.30;99.90;;;;;;2110554;67;20849;-72
2022/03/21 05:52:11;;;;;;;43.33;23.40;;;3.30;99.90;;;;;;2117598;67;20184;-72
2022/03/21 05:54:53;;;;;;;41.67;23.10;;;3.30;99.90;;;;;;2105033;67;20212;-72
2022/03/21 05:57:35;;;;;;;37.58;21.95;;;3.20;99.90;;;;;;2121981;67;20305;-72
2022/03/21 06:00:21;;;;;;;33.78;21.05;;;3.20;99.90;;;;;;2140873;66;20584;-72
2022/03/21 06:03:03;;;;;;;37.00;23.27;;;3.20;99.90;;;;;;2143889;66;20179;-72
2022/03/21 06:05:46;;;;;;;36.08;22.00;;;3.20;99.90;;;;;;2138719;66;20375;-72
2022/03/21 06:08:29;;;;;;;37.25;22.08;;;3.20;99.90;;;;;;2126260;67;20201;-72
2022/03/21 06:11:15;;;;;;;37.13;22.25;;;3.10;99.90;;;;;;2139152;66;20259;-74
2022/03/21 06:14:00;;;;;;;;;;;3.10;99.90;;;;;;2140757;66;20300;-72
2022/03/21 06:16:45;;;;;;;48.45;23.38;;;3.10;99.90;;;;;;2148400;66;20655;-73
2022/03/21 06:19:30;;;;;;;41.22;23.02;;;3.20;99.90;;;;;;2146356;66;20174;-72
2022/03/21 06:22:13;;;;;;;38.85;23.70;;;3.20;99.90;;;;;;2160555;66;20668;-72
2022/03/21 06:24:56;;;;;;;35.65;24.00;;;3.30;99.90;;;;;;2144505;66;20819;-73
2022/03/21 06:27:59;;;;;;;38.88;23.65;;;3.40;99.90;;;;;;2129932;67;20403;-72
2022/03/21 06:30:44;;;;;;;39.45;23.30;;;3.40;99.90;;;;;;2156842;66;20387;-74
2022/03/21 06:33:30;;;;;;;37.58;23.08;;;3.40;99.90;;;;;;2148024;66;20190;-73
2022/03/21 06:36:14;;;;;;;38.60;23.02;;;3.50;99.90;;;;;;2136401;66;20235;-73
2022/03/21 06:38:56;;;;;;;45.03;24.33;;;3.50;99.90;;;;;;2137012;66;20239;-73
2022/03/21 06:41:39;;;;;;;43.10;26.80;;;3.60;99.90;;;;;;2142170;66;20446;-71
2022/03/21 06:44:22;;;;;;;36.88;23.88;;;3.60;99.90;;;;;;2139284;66;20402;-72
2022/03/21 06:47:05;;;;;;;38.95;23.27;;;3.70;99.90;;;;;;2152921;66;20255;-72
2022/03/21 06:49:48;;;;;;;36.20;23.15;;;3.70;99.90;;;;;;2154048;66;20378;-73
2022/03/21 06:52:30;;;;;;;37.50;24.20;;;3.90;99.90;;;;;;2154433;66;20850;-72
2022/03/21 06:55:12;;;;;;;36.17;22.35;;;3.80;99.90;;;;;;2155207;66;20268;-73
2022/03/21 06:57:55;;;;;;;38.25;23.40;;;3.90;99.90;;;;;;2166794;65;20279;-73
2022/03/21 07:00:39;;;;;;;33.33;22.25;;;4.00;99.90;;;;;;2145161;66;20351;-72
2022/03/21 07:03:28;;;;;;;42.63;24.13;;;4.10;99.90;;;;;;2145636;66;20226;-72
2022/03/21 07:06:09;;;;;;;42.95;23.70;;;4.20;99.90;;;;;;2131053;67;20260;-74
2022/03/21 07:08:58;;;;;;;40.28;24.65;;;4.30;99.90;;;;;;2130514;67;20344;-73
2022/03/21 07:11:41;;;;;;;37.47;24.23;;;4.60;99.90;;;;;;2133577;66;20205;-74
2022/03/21 07:14:23;;;;;;;40.38;24.77;;;4.60;99.90;;;;;;2124408;67;20333;-75
2022/03/21 07:17:06;;;;;;;38.80;25.48;;;4.70;99.90;;;;;;2123027;67;20813;-76
2022/03/21 07:19:49;;;;;;;44.50;29.45;;;4.80;99.90;;;;;;2117577;67;20562;-75
2022/03/21 07:22:34;;;;;;;38.65;25.45;;;4.90;99.90;;;;;;2124394;67;20298;-75
2022/03/21 07:25:17;;;;;;;35.95;23.27;;;5.00;99.90;;;;;;2124674;67;20433;-76
2022/03/21 07:27:58;;;;;;;38.85;24.70;;;5.20;99.90;;;;;;2126995;67;20180;-76
2022/03/21 07:30:42;;;;;;;35.22;21.63;;;5.30;99.90;;;;;;2132725;66;20681;-75
2022/03/21 07:33:28;;;;;;;31.75;20.58;;;5.40;99.90;;;;;;2138826;66;20342;-75
2022/03/21 07:36:10;;;;;;;32.63;20.08;;;5.60;99.90;;;;;;2168089;66;20190;-75
2022/03/21 07:38:52;;;;;;;27.95;18.65;;;5.80;99.90;;;;;;2160274;66;20814;-75
2022/03/21 07:41:35;;;;;;;25.63;17.70;;;5.90;99.90;;;;;;2153698;66;20285;-74
2022/03/21 07:47:22;;;;;;;25.40;16.02;;;6.20;99.90;;;;;;2136620;67;20254;-76
2022/03/21 07:50:07;;;;;;;25.98;17.45;;;6.30;99.90;;;;;;2146281;66;20717;-75
2022/03/21 07:52:50;;;;;;;24.25;16.08;;;6.40;99.90;;;;;;2142915;66;20181;-75
2022/03/21 07:55:32;;;;;;;26.95;16.90;;;6.50;99.90;;;;;;2146363;66;20333;-76
2022/03/21 07:58:14;;;;;;;23.90;15.82;;;6.60;99.90;;;;;;2153374;66;20184;-75
2022/03/21 08:01:01;;;;;;;26.73;18.25;;;6.70;99.90;;;;;;2145625;66;20238;-76
2022/03/21 08:03:46;;;;;;;27.25;18.60;;;6.80;99.90;;;;;;2136917;66;20175;-75
2022/03/21 08:06:29;;;;;;;26.17;17.90;;;6.80;99.90;;;;;;2144245;66;20816;-75
2022/03/21 08:09:11;;;;;;;27.20;18.33;;;6.90;99.90;;;;;;2145945;66;20680;-76
2022/03/21 08:11:57;;;;;;;27.85;16.85;;;7.00;99.90;;;;;;2146281;66;20270;-76
2022/03/21 08:14:45;;;;;;;24.65;16.25;;;7.10;99.90;;;;;;2152516;66;20375;-75
2022/03/21 08:17:28;;;;;;;26.70;18.55;;;7.20;99.90;;;;;;2137336;67;20344;-76
2022/03/21 08:20:13;;;;;;;29.48;17.30;;;7.30;99.90;;;;;;2117177;67;20318;-76
2022/03/21 08:22:56;;;;;;;27.63;16.75;;;7.40;99.90;;;;;;2113060;67;20219;-75
2022/03/21 08:25:43;;;;;;;26.02;17.13;;;7.40;99.90;;;;;;2120437;67;20205;-77
2022/03/21 08:28:26;;;;;;;25.45;16.50;;;7.40;99.90;;;;;;2109452;67;20432;-76
2022/03/21 08:31:08;;;;;;;23.52;16.88;;;7.50;99.90;;;;;;2114708;67;20461;-75
2022/03/21 08:33:51;;;;;;;25.40;16.90;;;7.60;99.90;;;;;;2114902;67;20331;-76
2022/03/21 08:36:33;;;;;;;24.92;18.10;;;7.70;99.90;;;;;;2129471;67;20271;-76
2022/03/21 08:39:17;;;;;;;27.38;18.65;;;7.80;99.90;;;;;;2127785;67;20238;-73
2022/03/21 08:42:02;;;;;;;27.08;17.23;;;7.90;99.90;;;;;;2125776;67;20376;-76
2022/03/21 08:44:44;;;;;;;28.40;17.52;;;8.00;99.90;;;;;;2121038;67;21295;-72
2022/03/21 08:47:26;;;;;;;27.83;17.58;;;8.10;99.90;;;;;;2131980;67;20307;-73
2022/03/21 08:50:10;;;;;;;24.58;16.52;;;8.30;99.90;;;;;;2150685;66;20304;-73
2022/03/21 08:52:56;;;;;;;28.67;18.25;;;8.40;99.90;;;;;;2133862;67;20334;-73
2022/03/21 08:55:46;;;;;;;25.92;16.83;;;8.40;99.90;;;;;;2129044;67;20330;-72
2022/03/21 08:58:28;;;;;;;23.83;17.10;;;8.50;99.90;;;;;;2129297;66;20402;-74
2022/03/21 09:01:12;;;;;;;30.17;17.25;;;8.60;99.90;;;;;;2138341;67;20233;-73
2022/03/21 09:03:59;;;;;;;29.77;18.00;;;8.70;99.90;;;;;;2143911;66;20377;-72
2022/03/21 09:06:41;;;;;;;25.33;17.42;;;8.80;99.90;;;;;;2126487;67;20352;-73
2022/03/21 09:09:27;;;;;;;25.50;16.92;;;8.90;99.90;;;;;;2118248;67;20392;-73
2022/03/21 09:12:12;;;;;;;29.58;17.08;;;8.90;99.90;;;;;;2115915;67;20295;-73
2022/03/21 09:15:00;;;;;;;28.33;18.13;;;9.10;99.90;;;;;;2112722;67;20241;-73
2022/03/21 09:17:44;;;;;;;22.42;17.02;;;9.20;99.90;;;;;;2113086;67;20390;-73
2022/03/21 09:20:26;;;;;;;23.80;16.48;;;9.20;99.90;;;;;;2108807;67;20323;-73
2022/03/21 09:23:11;;;;;;;27.92;17.73;;;9.30;99.90;;;;;;2099301;67;20316;-74
2022/03/21 09:25:53;;;;;;;25.33;17.27;;;9.50;99.90;;;;;;2119051;67;20851;-72
2022/03/21 09:28:36;;;;;;;24.58;16.95;;;9.60;99.90;;;;;;2125511;67;20372;-74
2022/03/21 09:31:21;;;;;;;;;;;9.70;99.90;;;;;;2107782;67;20242;-75
2022/03/21 09:34:05;;;;;;;23.98;16.15;;;9.70;99.90;;;;;;2116428;67;20068;-76
2022/03/21 09:36:50;;;;;;;27.77;16.17;;;9.80;99.90;;;;;;2130559;67;20265;-75
2022/03/21 09:39:34;;;;;;;24.85;16.52;;;9.90;99.90;;;;;;2144343;66;20304;-76
2022/03/21 09:42:21;;;;;;;26.75;17.63;;;9.90;99.90;;;;;;2145078;66;20238;-75
2022/03/21 09:45:23;;;;;;;23.67;15.70;;;10.10;99.90;;;;;;2137406;67;20696;-77
2022/03/21 09:48:16;;;;;;;19.38;14.55;;;10.20;99.90;;;;;;2133911;67;20234;-75
2022/03/21 09:51:11;;;;;;;22.30;14.80;;;10.30;99.90;;;;;;2133587;67;20247;-75
2022/03/21 09:53:55;;;;;;;24.08;14.65;;;10.40;99.90;;;;;;2131798;67;20728;-77
2022/03/21 09:56:41;;;;;;;22.92;13.40;;;10.50;99.90;;;;;;2131847;66;20194;-76
2022/03/21 09:59:27;;;;;;;22.15;16.05;;;10.60;99.90;;;;;;2133784;66;20303;-76
2022/03/21 10:02:13;;;;;;;23.83;15.55;;;10.70;98.80;;;;;;2117925;67;20917;-76
2022/03/21 10:04:56;;;;;;;25.35;16.13;;;10.70;96.70;;;;;;2110945;67;20274;-77
2022/03/21 10:07:38;;;;;;;22.23;15.00;;;10.80;96.20;;;;;;2105493;67;20186;-76
2022/03/21 10:10:20;;;;;;;27.70;16.15;;;10.90;94.80;;;;;;2103992;67;20303;-76
2022/03/21 10:13:09;;;;;;;18.92;14.38;;;11.00;94.10;;;;;;2126049;66;20195;-75
2022/03/21 10:16:13;;;;;;;20.13;14.02;;;11.10;93.30;;;;;;2136594;67;20237;-76
2022/03/21 10:19:00;;;;;;;21.45;14.32;;;11.20;91.20;;;;;;2135140;67;20226;-75
2022/03/21 10:22:02;;;;;;;21.80;13.82;;;11.20;90.30;;;;;;2139418;67;20175;-76
2022/03/21 10:24:46;;;;;;;17.48;12.65;;;11.20;86.90;;;;;;2136247;66;20355;-76
2022/03/21 10:27:36;;;;;;;19.33;13.90;;;11.40;84.20;;;;;;2138738;66;20240;-76
2022/03/21 10:30:24;;;;;;;19.30;13.65;;;11.40;80.50;;;;;;2142418;66;20267;-76
2022/03/21 10:33:07;;;;;;;16.15;12.02;;;11.60;74.30;;;;;;2149569;66;20253;-76
2022/03/21 10:35:51;;;;;;;18.45;12.77;;;11.70;68.80;;;;;;2146197;66;20437;-77
2022/03/21 10:38:39;;;;;;;17.42;13.10;;;11.70;66.50;;;;;;2157123;65;20192;-76
2022/03/21 10:41:34;;;;;;;20.67;14.45;;;11.80;66.60;;;;;;2162604;66;20377;-77
2022/03/21 10:44:16;;;;;;;21.70;14.43;;;12.00;66.90;;;;;;2165100;66;20314;-77
2022/03/21 10:47:00;;;;;;;19.48;14.15;;;12.20;68.90;;;;;;2159062;66;20208;-77
2022/03/21 10:49:44;;;;;;;23.02;14.48;;;12.50;69.60;;;;;;2166512;65;20336;-77
2022/03/21 10:52:30;;;;;;;17.63;13.80;;;12.80;70.30;;;;;;2141323;66;20255;-77
2022/03/21 10:55:21;;;;;;;20.40;14.55;;;13.20;71.20;;;;;;2144422;66;20276;-76
2022/03/21 10:58:03;;;;;;;18.17;15.35;;;13.50;71.00;;;;;;2123582;67;20277;-78
2022/03/21 11:00:45;;;;;;;20.48;14.68;;;13.90;72.00;;;;;;2125805;67;20176;-77
2022/03/21 11:03:28;;;;;;;17.73;14.63;;;14.30;68.30;;;;;;2112944;67;20329;-78
2022/03/21 11:06:10;;;;;;;19.83;14.77;;;14.60;68.00;;;;;;2120184;67;20345;-77
2022/03/21 11:08:55;;;;;;;19.77;15.35;;;14.90;67.70;;;;;;2119372;67;20675;-78
2022/03/21 11:11:42;;;;;;;17.33;14.10;;;15.40;66.50;;;;;;2114696;67;20326;-77
2022/03/21 11:14:24;;;;;;;18.57;15.03;;;15.80;62.90;;;;;;2116220;67;20223;-78
2022/03/21 11:17:07;;;;;;;20.55;15.80;;;16.10;61.60;;;;;;2119763;67;20275;-78
2022/03/21 11:19:52;;;;;;;19.73;14.93;;;16.50;61.50;;;;;;2132779;67;20580;-77
2022/03/21 11:22:42;;;;;;;20.27;16.05;;;17.00;61.20;;;;;;2131823;67;20253;-78
2022/03/21 11:25:38;;;;;;;18.10;15.10;;;17.50;60.10;;;;;;2118294;67;20221;-77
2022/03/21 11:28:53;;;;;;;16.90;14.75;;;18.10;57.80;;;;;;2124927;67;20200;-77
2022/03/21 11:31:43;;;;;;;21.63;16.13;;;18.60;57.30;;;;;;2139230;66;20504;-79
2022/03/21 11:34:42;;;;;;;18.17;14.40;;;19.00;53.90;;;;;;2140660;66;20274;-77
2022/03/21 11:37:24;;;;;;;17.45;14.43;;;19.30;49.70;;;;;;2153706;66;20244;-76
2022/03/21 11:40:40;;;;;;;19.80;17.55;;;19.50;50.40;;;;;;2153698;66;20181;-77
2022/03/21 11:43:22;;;;;;;19.10;14.95;;;19.80;51.50;;;;;;1931214;66;15191752;-79
2022/03/21 11:46:31;;;;;;;17.05;14.50;;;20.40;50.70;;;;;;2150821;66;20375;-79
2022/03/21 11:49:18;;;;;;;16.98;15.18;;;21.20;50.50;;;;;;2149121;66;20452;-76
2022/03/21 11:52:03;;;;;;;17.40;15.25;;;21.70;47.90;;;;;;2149760;66;20657;-78
2022/03/21 11:54:45;;;;;;;16.85;14.93;;;22.20;46.80;;;;;;2129304;67;20188;-77
2022/03/21 11:57:33;;;;;;;17.48;13.77;;;22.50;44.90;;;;;;2114029;67;20730;-78
2022/03/21 12:00:25;;;;;;;16.55;14.57;;;22.70;43.40;;;;;;2102460;67;20256;-79
2022/03/21 12:03:25;;;;;;;17.20;15.05;;;22.90;43.50;;;;;;2125078;67;20338;-78
2022/03/21 12:06:32;;;;;;;17.38;13.00;;;23.30;43.40;;;;;;2105765;67;20316;-79
2022/03/21 12:09:15;;;;;;;15.93;14.27;;;23.60;42.30;;;;;;2103736;67;20334;-78
2022/03/21 12:11:59;;;;;;;18.63;14.98;;;24.00;41.80;;;;;;2118871;67;20184;-79
2022/03/21 12:14:45;;;;;;;16.48;14.15;;;24.50;41.10;;;;;;2116643;67;20249;-79
2022/03/21 12:17:34;;;;;;;18.98;14.48;;;25.00;38.00;;;;;;2108899;67;20204;-77
2022/03/21 12:20:20;;;;;;;13.70;11.93;;;25.00;37.80;;;;;;2108920;67;20275;-77
2022/03/21 12:23:18;;;;;;;18.45;15.25;;;24.90;37.60;;;;;;2110444;67;20412;-77
2022/03/21 12:26:01;;;;;;;15.57;13.98;;;25.20;38.20;;;;;;2110466;67;20439;-77
2022/03/21 12:32:23;;;;;;;18.75;14.25;;;26.40;36.70;;;;;;2111159;67;20337;-77
2022/03/21 12:35:07;;;;;;;13.93;12.52;;;26.60;36.80;;;;;;2120238;67;20720;-78
2022/03/21 12:37:50;;;;;;;17.13;14.43;;;26.70;34.90;;;;;;2118302;67;20225;-76
2022/03/21 12:40:36;;;;;;;16.02;12.93;;;26.60;34.90;;;;;;2126416;67;20239;-77
2022/03/21 12:43:23;;;;;;;15.23;13.18;;;26.90;34.90;;;;;;2105395;67;20391;-79
2022/03/21 12:46:07;;;;;;;15.98;14.32;;;27.40;34.70;;;;;;2102431;68;20337;-77
2022/03/21 12:49:00;;;;;;;15.25;13.65;;;28.00;33.90;;;;;;2110081;67;20295;-79
2022/03/21 12:51:44;;;;;;;16.95;13.25;;;28.30;33.50;;;;;;2116899;67;20671;-78
2022/03/21 12:54:30;;;;;;;14.25;12.93;;;28.40;32.60;;;;;;2118002;67;20204;-77
2022/03/21 12:57:15;;;;;;;17.65;12.57;;;28.40;31.30;;;;;;2119064;67;20332;-78
2022/03/21 13:00:14;;;;;;;19.88;14.10;;;28.30;31.90;;;;;;2117284;67;20667;-79
2022/03/21 13:02:56;;;;;;;17.40;13.55;;;28.40;32.40;;;;;;2112132;67;20170;-77
2022/03/21 13:11:52;;;;;;;14.30;12.80;;;29.80;31.00;;;;;;2107531;67;20191;-79
2022/03/21 13:14:40;;;;;;;16.20;12.75;;;29.70;30.80;;;;;;2114277;67;20606;-77
2022/03/21 13:17:22;;;;;;;15.02;12.70;;;30.10;30.90;;;;;;2110191;67;20354;-77
2022/03/21 13:20:05;;;;;;;13.90;12.32;;;30.70;30.10;;;;;;2122972;67;20325;-79
2022/03/21 13:22:49;;;;;;;13.63;11.52;;;31.10;30.00;;;;;;2109951;67;20583;-79
2022/03/21 13:25:35;;;;;;;18.50;13.35;;;31.40;30.00;;;;;;2112165;67;20398;-78
2022/03/21 13:28:20;;;;;;;15.15;12.60;;;32.00;30.00;;;;;;2106962;67;20410;-78
2022/03/21 13:30:59;;;;;;;16.92;12.45;;;32.50;29.80;;;;;;2109640;67;20379;-78
2022/03/21 13:33:36;;;;;;;16.38;13.10;;;32.70;29.30;;;;;;2108445;67;20221;-80
2022/03/21 13:36:19;;;;;;;12.82;11.63;;;33.10;28.90;;;;;;2121540;67;20582;-78
2022/03/21 13:39:32;;;;;;;16.27;12.30;;;33.10;28.40;;;;;;2132987;66;20288;-78
2022/03/21 13:42:21;;;;;;;14.65;12.23;;;33.00;28.90;;;;;;2138773;66;20639;-77
2022/03/21 13:45:02;;;;;;;14.07;12.57;;;32.90;28.20;;;;;;2146102;66;20189;-79
2022/03/21 13:47:53;;;;;;;16.30;11.27;;;33.20;28.00;;;;;;2152230;66;20338;-78
2022/03/21 13:50:38;;;;;;;13.45;11.45;;;33.70;28.00;;;;;;2153066;66;20377;-77
2022/03/21 13:53:30;;;;;;;14.07;12.68;;;33.50;27.50;;;;;;2163551;65;20349;-78
2022/03/21 13:56:25;;;;;;;13.63;12.23;;;32.80;27.80;;;;;;2176465;65;20185;-79
2022/03/21 13:59:15;;;;;;;15.73;12.98;;;32.50;28.00;;;;;;2177444;65;20227;-77
2022/03/21 14:02:09;;;;;;;13.52;12.32;;;32.60;27.80;;;;;;2177718;65;20356;-78
2022/03/21 14:04:46;;;;;;;14.93;12.65;;;32.60;27.70;;;;;;2174465;65;20336;-78
2022/03/21 14:07:32;;;;;;;13.30;11.85;;;32.90;27.90;;;;;;2173188;65;20713;-78
2022/03/21 14:10:13;;;;;;;16.70;13.05;;;33.00;27.80;;;;;;2175616;65;20275;-77
2022/03/21 14:12:54;;;;;;;14.00;12.60;;;33.20;28.40;;;;;;2176256;65;20278;-79
2022/03/21 14:15:30;;;;;;;15.25;13.50;;;33.30;27.80;;;;;;2191098;64;20297;-78
2022/03/21 14:18:13;;;;;;;16.55;14.20;;;33.40;27.20;;;;;;2222294;64;20209;-79
2022/03/21 14:21:06;;;;;;;14.68;13.18;;;33.10;27.30;;;;;;2206234;64;20198;-78
2022/03/21 14:23:47;;;;;;;15.30;13.80;;;31.80;27.50;;;;;;2205968;64;20201;-78
2022/03/21 14:26:41;;;;;;;18.58;12.73;;;31.20;27.90;;;;;;2191180;65;20178;-77
2022/03/21 14:29:25;;;;;;;16.17;13.13;;;31.10;28.20;;;;;;2190369;65;20347;-79
2022/03/21 14:32:16;;;;;;;15.35;13.60;;;30.90;28.10;;;;;;2174429;65;20175;-79
2022/03/21 14:34:58;;;;;;;15.00;12.60;;;30.50;28.10;;;;;;2166703;66;20724;-80